createdAt,value
2023-04-21T00:01:23.798Z,12.40
2023-04-21T00:03:50.934Z,12.40
2023-04-21T00:06:22.565Z,12.40
2023-04-21T00:08:50.731Z,12.50
2023-04-21T00:11:18.064Z,12.40
2023-04-21T00:13:45.298Z,12.40
2023-04-21T00:16:12.342Z,12.40
2023-04-21T00:18:39.199Z,12.40
2023-04-21T00:21:06.254Z,12.40
2023-04-21T00:23:33.121Z,12.50
2023-04-21T00:26:02.614Z,12.40
2023-04-21T00:28:29.822Z,12.30
2023-04-21T00:30:56.840Z,12.30
2023-04-21T00:33:23.659Z,12.30
2023-04-21T00:35:50.342Z,12.30
2023-04-21T00:38:17.032Z,12.40
2023-04-21T00:40:43.686Z,12.40
2023-04-21T00:43:10.517Z,12.40
2023-04-21T00:45:37.348Z,12.40
2023-04-21T00:48:04.296Z,12.30
2023-04-21T00:50:32.167Z,12.30
2023-04-21T00:52:59.161Z,12.30
2023-04-21T00:55:26.007Z,12.30
2023-04-21T00:57:53.579Z,12.40
2023-04-21T01:00:20.520Z,12.40
2023-04-21T01:02:47.596Z,12.40
2023-04-21T01:05:16.446Z,12.50
2023-04-21T01:07:43.720Z,12.50
2023-04-21T01:10:10.892Z,12.40
2023-04-21T01:12:47.642Z,12.50
2023-04-21T01:15:17.370Z,12.50
2023-04-21T01:17:45.198Z,12.50
2023-04-21T01:20:14.201Z,12.50
2023-04-21T01:22:42.391Z,12.60
2023-04-21T01:25:09.739Z,12.50
2023-04-21T01:27:36.875Z,12.50
2023-04-21T01:30:05.163Z,12.50
2023-04-21T01:32:32.089Z,12.50
2023-04-21T01:35:00.024Z,12.50
2023-04-21T01:37:29.961Z,12.40
2023-04-21T01:39:58.982Z,12.50
2023-04-21T01:42:27.628Z,12.50
2023-04-21T01:44:54.653Z,12.50
2023-04-21T01:47:22.115Z,12.50
2023-04-21T01:49:48.855Z,12.50
2023-04-21T01:52:15.804Z,12.50
2023-04-21T01:54:42.467Z,12.50
2023-04-21T01:57:09.237Z,12.50
2023-04-21T01:59:36.055Z,12.50
2023-04-21T02:02:03.239Z,12.50
2023-04-21T02:04:30.216Z,12.60
2023-04-21T02:06:57.052Z,12.60
2023-04-21T02:09:23.726Z,12.50
2023-04-21T02:11:50.489Z,12.50
2023-04-21T02:14:17.229Z,12.60
2023-04-21T02:16:44.118Z,12.60
2023-04-21T02:19:11.039Z,12.60
2023-04-21T02:21:37.684Z,12.60
2023-04-21T02:24:04.724Z,12.70
2023-04-21T02:26:31.651Z,12.70
2023-04-21T02:28:58.402Z,12.80
2023-04-21T02:31:25.184Z,12.70
2023-04-21T02:33:52.007Z,12.70
2023-04-21T02:36:18.664Z,12.70
2023-04-21T02:38:45.484Z,12.70
2023-04-21T02:41:12.141Z,12.60
2023-04-21T02:43:38.820Z,12.70
2023-04-21T02:46:09.622Z,12.70
2023-04-21T02:48:36.523Z,12.70
2023-04-21T02:51:04.301Z,12.60
2023-04-21T02:53:31.082Z,12.60
2023-04-21T02:55:58.050Z,12.60
2023-04-21T02:58:24.836Z,12.60
2023-04-21T03:00:51.757Z,12.50
2023-04-21T03:03:19.066Z,12.50
2023-04-21T03:05:46.105Z,12.50
2023-04-21T03:08:12.939Z,12.60
2023-04-21T03:10:39.842Z,12.70
2023-04-21T03:13:06.567Z,12.60
2023-04-21T03:15:33.420Z,12.70
2023-04-21T03:18:00.516Z,12.70
2023-04-21T03:20:27.298Z,12.70
2023-04-21T03:22:54.375Z,12.70
2023-04-21T03:25:21.638Z,12.70
2023-04-21T03:27:48.309Z,12.60
2023-04-21T03:30:15.494Z,12.60
2023-04-21T03:32:42.302Z,12.50
2023-04-21T03:35:09.122Z,12.50
2023-04-21T03:37:35.788Z,12.50
2023-04-21T03:40:02.709Z,12.60
2023-04-21T03:42:30.193Z,12.70
2023-04-21T03:44:56.939Z,12.70
2023-04-21T03:47:23.638Z,12.80
2023-04-21T03:49:50.565Z,12.80
2023-04-21T03:52:17.359Z,13.00
2023-04-21T03:54:44.154Z,12.80
2023-04-21T03:57:10.775Z,12.80
2023-04-21T03:59:37.481Z,12.90
2023-04-21T04:02:04.508Z,12.90
2023-04-21T04:04:31.751Z,12.90
2023-04-21T04:06:58.824Z,12.80
2023-04-21T04:09:25.715Z,12.80
2023-04-21T04:11:52.666Z,12.80
2023-04-21T04:14:19.419Z,12.80
2023-04-21T04:16:46.114Z,12.80
2023-04-21T04:19:13.583Z,13.00
2023-04-21T04:21:40.354Z,12.80
2023-04-21T04:24:08.347Z,12.90
2023-04-21T04:26:35.564Z,12.80
2023-04-21T04:29:02.412Z,12.90
2023-04-21T04:31:30.426Z,12.80
2023-04-21T04:33:57.884Z,12.80
2023-04-21T04:36:25.169Z,12.80
2023-04-21T04:38:52.051Z,12.90
2023-04-21T04:41:19.576Z,12.80
2023-04-21T04:43:47.407Z,12.80
2023-04-21T04:46:14.144Z,12.80
2023-04-21T04:48:40.929Z,12.80
2023-04-21T04:51:07.787Z,12.80
2023-04-21T04:53:34.422Z,12.80
2023-04-21T04:56:01.190Z,12.80
2023-04-21T04:58:27.939Z,12.80
2023-04-21T05:00:54.654Z,12.80
2023-04-21T05:03:21.656Z,12.80
2023-04-21T05:05:48.616Z,12.90
2023-04-21T05:08:17.836Z,12.80
2023-04-21T05:10:44.922Z,12.80
2023-04-21T05:13:11.658Z,12.80
2023-04-21T05:15:38.459Z,12.80
2023-04-21T05:18:05.336Z,12.80
2023-04-21T05:20:32.052Z,12.80
2023-04-21T05:22:58.720Z,12.90
2023-04-21T05:25:25.444Z,12.80
2023-04-21T05:27:52.223Z,12.80
2023-04-21T05:30:19.011Z,12.80
2023-04-21T05:32:45.786Z,12.80
2023-04-21T05:35:12.439Z,12.80
2023-04-21T05:37:39.240Z,12.80
2023-04-21T05:40:06.635Z,12.80
2023-04-21T05:42:33.355Z,12.80
2023-04-21T05:45:00.210Z,12.70
2023-04-21T05:47:27.051Z,12.70
2023-04-21T05:49:54.068Z,12.70
2023-04-21T05:52:24.223Z,12.70
2023-04-21T05:54:51.039Z,12.70
2023-04-21T05:57:17.908Z,12.70
2023-04-21T05:59:44.797Z,12.80
2023-04-21T06:02:11.934Z,12.90
2023-04-21T06:04:38.923Z,12.90
2023-04-21T06:07:10.406Z,12.90
2023-04-21T06:09:37.297Z,12.90
2023-04-21T06:12:04.191Z,12.90
2023-04-21T06:14:31.100Z,12.90
2023-04-21T06:16:57.909Z,12.90
2023-04-21T06:19:25.047Z,12.90
2023-04-21T06:21:51.736Z,12.80
2023-04-21T06:24:24.924Z,12.80
2023-04-21T06:26:53.495Z,12.80
2023-04-21T06:29:20.810Z,12.70
2023-04-21T06:31:47.751Z,12.60
2023-04-21T06:34:14.494Z,12.50
2023-04-21T06:36:41.187Z,12.60
2023-04-21T06:39:07.853Z,12.70
2023-04-21T06:41:34.606Z,12.80
2023-04-21T06:44:01.293Z,12.80
2023-04-21T06:46:28.153Z,12.70
2023-04-21T06:48:54.846Z,12.80
2023-04-21T06:51:21.603Z,12.70
2023-04-21T06:53:48.370Z,12.80
2023-04-21T06:56:15.096Z,12.80
2023-04-21T06:58:41.771Z,12.80
2023-04-21T07:01:08.414Z,12.90
2023-04-21T07:03:35.246Z,12.80
2023-04-21T07:06:01.965Z,12.90
2023-04-21T07:08:28.660Z,13.00
2023-04-21T07:10:55.449Z,13.00
2023-04-21T07:13:22.243Z,13.10
2023-04-21T07:15:48.933Z,13.10
2023-04-21T07:18:15.792Z,13.00
2023-04-21T07:20:42.616Z,13.00
2023-04-21T07:23:09.270Z,13.00
2023-04-21T07:25:36.728Z,13.10
2023-04-21T07:28:04.626Z,13.10
2023-04-21T07:30:31.564Z,13.20
2023-04-21T07:32:58.616Z,13.20
2023-04-21T07:35:26.110Z,13.20
2023-04-21T07:37:52.887Z,13.20
2023-04-21T07:40:19.832Z,13.20
2023-04-21T07:42:46.589Z,13.20
2023-04-21T07:45:13.410Z,13.20
2023-04-21T07:47:40.379Z,13.20
2023-04-21T07:50:07.942Z,13.20
2023-04-21T07:52:34.693Z,13.20
2023-04-21T07:55:01.562Z,13.20
2023-04-21T07:57:28.297Z,13.30
2023-04-21T07:59:55.004Z,13.30
2023-04-21T08:02:21.893Z,13.40
2023-04-21T08:04:48.807Z,13.50
2023-04-21T08:07:15.982Z,13.50
2023-04-21T08:09:42.884Z,13.70
2023-04-21T08:12:09.583Z,13.70
2023-04-21T08:14:36.409Z,13.90
2023-04-21T08:17:03.466Z,14.00
2023-04-21T08:19:30.289Z,14.10
2023-04-21T08:21:57.857Z,14.10
2023-04-21T08:24:24.680Z,14.30
2023-04-21T08:26:51.463Z,14.40
2023-04-21T08:29:18.251Z,14.50
2023-04-21T08:31:45.130Z,14.60
2023-04-21T08:34:11.861Z,14.80
2023-04-21T08:36:38.598Z,15.00
2023-04-21T08:39:05.551Z,15.10
2023-04-21T08:41:33.061Z,15.20
2023-04-21T08:43:59.903Z,15.40
2023-04-21T08:46:28.124Z,15.40
2023-04-21T08:48:55.421Z,15.40
2023-04-21T08:51:24.071Z,15.40
2023-04-21T08:53:52.033Z,15.50
2023-04-21T08:56:18.978Z,15.60
2023-04-21T08:58:45.640Z,15.70
2023-04-21T09:01:12.569Z,15.70
2023-04-21T09:03:39.456Z,15.70
2023-04-21T09:06:09.565Z,15.90
2023-04-21T09:08:43.636Z,16.00
2023-04-21T09:11:14.886Z,16.00
2023-04-21T09:13:43.252Z,15.90
2023-04-21T09:16:20.253Z,15.90
2023-04-21T09:18:47.292Z,16.00
2023-04-21T09:21:16.159Z,16.10
2023-04-21T09:23:51.235Z,16.10
2023-04-21T09:26:19.990Z,16.20
2023-04-21T09:28:48.443Z,16.20
2023-04-21T09:31:16.975Z,16.30
2023-04-21T09:33:57.628Z,16.40
2023-04-21T09:36:27.843Z,16.60
2023-04-21T09:39:08.985Z,16.80
2023-04-21T09:41:41.434Z,17.00
2023-04-21T09:44:08.142Z,17.20
2023-04-21T09:46:36.814Z,17.30
2023-04-21T09:49:04.652Z,17.40
2023-04-21T09:52:05.338Z,17.50
2023-04-21T09:54:29.799Z,17.70
2023-04-21T09:57:02.694Z,17.80
2023-04-21T09:59:37.438Z,17.90
2023-04-21T10:02:08.298Z,17.80
2023-04-21T10:04:41.631Z,17.90
2023-04-21T10:07:10.619Z,18.10
2023-04-21T10:09:43.158Z,18.00
2023-04-21T10:12:11.329Z,17.90
2023-04-21T10:14:38.072Z,17.80
2023-04-21T10:17:06.788Z,17.70
2023-04-21T10:19:39.411Z,17.90
2023-04-21T10:22:10.477Z,18.10
2023-04-21T10:24:39.487Z,18.20
2023-04-21T10:27:09.426Z,18.30
2023-04-21T10:29:52.271Z,18.30
2023-04-21T10:32:42.810Z,18.20
2023-04-21T10:35:22.202Z,18.30
2023-04-21T10:37:51.490Z,18.50
2023-04-21T10:40:43.114Z,18.70
2023-04-21T10:43:44.402Z,18.80
2023-04-21T10:46:35.372Z,18.50
2023-04-21T10:49:31.580Z,18.60
2023-04-21T10:51:58.585Z,18.50
2023-04-21T10:54:26.793Z,18.30
2023-04-21T10:56:55.072Z,18.30
2023-04-21T10:59:22.566Z,18.20
2023-04-21T11:01:49.365Z,18.30
2023-04-21T11:04:17.498Z,18.30
2023-04-21T11:07:10.390Z,18.20
2023-04-21T11:09:38.201Z,18.20
2023-04-21T11:12:07.408Z,18.10
2023-04-21T11:14:36.604Z,18.20
2023-04-21T11:17:04.976Z,18.50
2023-04-21T11:19:34.682Z,18.60
2023-04-21T11:22:01.398Z,18.50
2023-04-21T11:24:28.031Z,18.50
2023-04-21T11:26:54.739Z,18.60
2023-04-21T11:29:21.487Z,18.80
2023-04-21T11:31:50.080Z,19.00
2023-04-21T11:34:20.830Z,19.20
2023-04-21T11:36:49.142Z,19.30
2023-04-21T11:39:22.485Z,19.50
2023-04-21T11:41:50.825Z,19.70
2023-04-21T11:44:37.850Z,19.80
2023-04-21T11:47:19.161Z,20.00
2023-04-21T11:49:56.835Z,20.10
2023-04-21T11:52:27.493Z,20.40
2023-04-21T11:55:13.000Z,20.60
2023-04-21T11:57:41.126Z,20.90
2023-04-21T12:00:15.163Z,21.10
2023-04-21T12:02:44.476Z,21.20
2023-04-21T12:05:13.686Z,21.30
2023-04-21T12:07:48.832Z,21.40
2023-04-21T12:10:19.143Z,21.70
2023-04-21T12:12:46.416Z,21.60
2023-04-21T12:15:19.564Z,21.60
2023-04-21T12:17:48.217Z,21.60
2023-04-21T12:20:19.774Z,21.60
2023-04-21T12:22:47.301Z,21.70
2023-04-21T12:25:14.355Z,21.80
2023-04-21T12:27:54.458Z,22.10
2023-04-21T12:30:21.808Z,22.40
2023-04-21T12:32:49.105Z,22.70
2023-04-21T12:35:16.128Z,22.90
2023-04-21T12:37:43.006Z,23.10
2023-04-21T12:40:09.997Z,23.20
2023-04-21T12:42:38.374Z,23.30
2023-04-21T12:45:06.420Z,23.30
2023-04-21T12:47:33.620Z,23.20
2023-04-21T12:50:00.434Z,22.90
2023-04-21T12:52:27.231Z,22.80
2023-04-21T12:54:54.004Z,22.80
2023-04-21T12:57:21.374Z,22.80
2023-04-21T12:59:48.542Z,22.90
2023-04-21T13:02:15.540Z,22.80
2023-04-21T13:04:42.675Z,22.50
2023-04-21T13:07:09.521Z,22.50
2023-04-21T13:09:36.282Z,23.30
2023-04-21T13:12:03.275Z,24.40
2023-04-21T13:14:30.310Z,25.50
2023-04-21T13:16:57.230Z,25.70
2023-04-21T13:19:24.130Z,25.30
2023-04-21T13:21:54.010Z,24.60
2023-04-21T13:24:21.378Z,24.70
2023-04-21T13:26:48.155Z,24.10
2023-04-21T13:29:14.923Z,23.30
2023-04-21T13:31:41.670Z,22.40
2023-04-21T13:34:08.458Z,21.90
2023-04-21T13:36:35.772Z,21.50
2023-04-21T13:39:04.002Z,21.20
2023-04-21T13:41:30.857Z,20.80
2023-04-21T13:43:57.578Z,20.60
2023-04-21T13:46:24.314Z,20.40
2023-04-21T13:48:51.769Z,20.30
2023-04-21T13:51:20.498Z,20.30
2023-04-21T13:53:47.343Z,20.20
2023-04-21T13:56:14.303Z,20.30
2023-04-21T13:58:41.847Z,20.10
2023-04-21T14:01:09.042Z,20.10
2023-04-21T14:03:36.460Z,20.00
2023-04-21T14:06:03.495Z,20.00
2023-04-21T14:08:30.276Z,19.90
2023-04-21T14:10:57.446Z,19.80
2023-04-21T14:16:00.378Z,19.70
2023-04-21T14:18:27.155Z,19.70
2023-04-21T14:20:53.816Z,19.70
2023-04-21T14:23:20.704Z,19.60
2023-04-21T14:25:47.438Z,19.50
2023-04-21T14:28:14.913Z,19.30
2023-04-21T14:30:43.115Z,19.30
2023-04-21T14:33:09.947Z,19.20
2023-04-21T14:35:39.632Z,19.10
2023-04-21T14:38:06.412Z,19.00
2023-04-21T14:40:33.124Z,18.90
2023-04-21T14:42:59.913Z,18.80
2023-04-21T14:45:26.889Z,18.80
2023-04-21T14:47:53.781Z,18.60
2023-04-21T14:50:21.957Z,18.70
2023-04-21T14:52:49.802Z,18.70
2023-04-21T14:55:16.970Z,18.70
2023-04-21T14:57:43.949Z,18.80
2023-04-21T15:00:11.580Z,18.70
2023-04-21T15:02:39.574Z,18.70
2023-04-21T15:05:08.577Z,18.80
2023-04-21T15:07:35.961Z,18.80
2023-04-21T15:10:02.847Z,18.80
2023-04-21T15:12:29.630Z,18.70
2023-04-21T15:14:56.357Z,18.70
2023-04-21T15:17:23.200Z,18.70
2023-04-21T15:19:50.406Z,18.70
2023-04-21T15:22:17.235Z,18.70
2023-04-21T15:24:44.055Z,18.70
2023-04-21T15:27:10.861Z,18.60
2023-04-21T15:29:37.919Z,18.60
2023-04-21T15:32:05.999Z,18.60
2023-04-21T15:34:32.700Z,18.70
2023-04-21T15:36:59.445Z,18.70
2023-04-21T15:39:26.129Z,18.60
2023-04-21T15:41:54.900Z,18.60
2023-04-21T15:44:21.870Z,18.50
2023-04-21T15:46:48.685Z,18.50
2023-04-21T15:49:15.690Z,18.50
2023-04-21T15:51:42.844Z,18.50
2023-04-21T15:54:09.929Z,18.40
2023-04-21T15:56:36.978Z,18.50
2023-04-21T15:59:04.610Z,18.50
2023-04-21T16:01:31.465Z,18.50
2023-04-21T16:03:59.403Z,18.50
2023-04-21T16:06:29.375Z,18.60
2023-04-21T16:08:56.581Z,18.60
2023-04-21T16:11:25.020Z,18.50
2023-04-21T16:13:52.457Z,18.60
2023-04-21T16:16:19.302Z,18.80
2023-04-21T16:18:46.107Z,18.90
2023-04-21T16:21:12.983Z,18.90
2023-04-21T16:23:39.946Z,18.90
2023-04-21T16:26:08.915Z,18.60
2023-04-21T16:28:35.867Z,18.50
2023-04-21T16:31:02.702Z,18.50
2023-04-21T16:33:29.776Z,18.60
2023-04-21T16:35:57.629Z,18.70
2023-04-21T16:38:24.826Z,18.80
2023-04-21T16:40:51.585Z,18.80
2023-04-21T16:43:18.428Z,18.60
2023-04-21T16:45:45.181Z,18.70
2023-04-21T16:48:12.255Z,18.60
2023-04-21T16:50:39.718Z,18.30
2023-04-21T16:53:06.418Z,18.30
2023-04-21T16:55:33.200Z,18.20
2023-04-21T16:57:59.853Z,18.20
2023-04-21T17:00:27.273Z,18.30
2023-04-21T17:02:54.143Z,18.30
2023-04-21T17:05:22.125Z,18.30
2023-04-21T17:07:48.801Z,18.30
2023-04-21T17:10:15.498Z,18.30
2023-04-21T17:12:42.539Z,18.30
2023-04-21T17:15:09.870Z,18.20
2023-04-21T17:17:42.540Z,18.00
2023-04-21T17:20:11.481Z,18.00
2023-04-21T17:22:41.916Z,18.00
2023-04-21T17:25:09.757Z,17.90
2023-04-21T17:27:37.632Z,17.90
2023-04-21T17:30:05.738Z,17.90
2023-04-21T17:32:34.036Z,17.80
2023-04-21T17:35:01.448Z,17.70
2023-04-21T17:37:29.537Z,17.60
2023-04-21T17:39:56.413Z,17.60
2023-04-21T17:42:23.269Z,17.50
2023-04-21T17:44:50.023Z,17.30
2023-04-21T17:47:16.810Z,17.30
2023-04-21T17:49:43.653Z,17.30
2023-04-21T17:52:10.328Z,17.30
2023-04-21T17:54:37.504Z,17.30
2023-04-21T17:57:04.529Z,17.30
2023-04-21T17:59:31.249Z,17.30
2023-04-21T18:01:58.920Z,17.20
2023-04-21T18:04:27.332Z,17.10
2023-04-21T18:06:54.246Z,17.10
2023-04-21T18:09:21.192Z,17.00
2023-04-21T18:11:48.029Z,17.00
2023-04-21T18:14:15.118Z,17.10
2023-04-21T18:16:41.823Z,17.00
2023-04-21T18:19:08.637Z,16.90
2023-04-21T18:21:35.689Z,16.90
2023-04-21T18:24:02.658Z,16.90
2023-04-21T18:26:29.552Z,16.90
2023-04-21T18:28:59.061Z,16.90
2023-04-21T18:31:26.634Z,16.80
2023-04-21T18:33:53.485Z,16.80
2023-04-21T18:36:20.245Z,16.80
2023-04-21T18:38:47.537Z,16.80
2023-04-21T18:41:14.559Z,16.70
2023-04-21T18:43:41.414Z,16.70
2023-04-21T18:46:08.173Z,16.80
2023-04-21T18:48:34.907Z,16.70
2023-04-21T18:51:01.642Z,16.70
2023-04-21T18:53:28.434Z,16.60
2023-04-21T18:55:55.298Z,16.60
2023-04-21T18:58:21.915Z,16.50
2023-04-21T19:00:48.751Z,16.50
2023-04-21T19:03:15.849Z,16.50
2023-04-21T19:05:42.835Z,16.50
2023-04-21T19:08:09.902Z,16.50
2023-04-21T19:10:37.907Z,16.50
2023-04-21T19:13:05.002Z,16.40
2023-04-21T19:15:31.843Z,16.40
2023-04-21T19:17:58.732Z,16.40
2023-04-21T19:20:25.608Z,16.40
2023-04-21T19:22:52.266Z,16.40
2023-04-21T19:25:19.101Z,16.40
2023-04-21T19:27:47.747Z,16.40
2023-04-21T19:30:14.537Z,16.20
2023-04-21T19:32:41.491Z,16.20
2023-04-21T19:35:08.688Z,16.20
2023-04-21T19:37:36.124Z,16.20
2023-04-21T19:40:03.952Z,16.20
2023-04-21T19:42:30.870Z,16.20
2023-04-21T19:44:57.594Z,16.20
2023-04-21T19:47:24.545Z,16.10
2023-04-21T19:49:51.219Z,16.10
2023-04-21T19:52:18.472Z,16.00
2023-04-21T19:54:45.389Z,16.00
2023-04-21T19:57:12.424Z,16.00
2023-04-21T19:59:39.348Z,15.90
2023-04-21T20:02:06.483Z,15.90
2023-04-21T20:04:34.550Z,15.90
2023-04-21T20:07:01.513Z,15.90
2023-04-21T20:09:28.371Z,15.90
2023-04-21T20:11:55.026Z,15.80
2023-04-21T20:14:21.995Z,15.80
2023-04-21T20:16:48.811Z,15.90
2023-04-21T20:19:17.171Z,15.90
2023-04-21T20:21:44.183Z,15.90
2023-04-21T20:24:11.066Z,15.90
2023-04-21T20:26:37.937Z,15.90
2023-04-21T20:29:04.738Z,15.90
2023-04-21T20:31:31.666Z,15.90
2023-04-21T20:33:58.514Z,15.90
2023-04-21T20:36:27.362Z,15.90
2023-04-21T20:38:54.106Z,15.80
2023-04-21T20:41:23.256Z,15.80
2023-04-21T20:43:50.163Z,15.80
2023-04-21T20:46:18.536Z,15.80
2023-04-21T20:48:45.601Z,15.80
2023-04-21T20:51:13.501Z,15.90
2023-04-21T20:53:40.352Z,15.90
2023-04-21T20:56:07.513Z,15.90
2023-04-21T20:58:36.025Z,15.90
2023-04-21T21:01:02.926Z,15.90
2023-04-21T21:03:30.798Z,15.80
2023-04-21T21:05:57.839Z,15.80
2023-04-21T21:08:24.627Z,15.80
2023-04-21T21:10:51.410Z,15.80
2023-04-21T21:13:18.153Z,15.70
2023-04-21T21:15:45.604Z,15.70
2023-04-21T21:18:12.452Z,15.70
2023-04-21T21:20:39.249Z,15.60
2023-04-21T21:23:07.374Z,15.60
2023-04-21T21:25:34.161Z,15.50
2023-04-21T21:28:01.056Z,15.50
2023-04-21T21:30:27.894Z,15.40
2023-04-21T21:32:55.298Z,15.40
2023-04-21T21:35:22.246Z,15.40
2023-04-21T21:37:49.218Z,15.40
2023-04-21T21:40:15.973Z,15.40
2023-04-21T21:42:42.736Z,15.40
2023-04-21T21:45:11.213Z,15.40
2023-04-21T21:47:41.661Z,15.40
2023-04-21T21:50:12.545Z,15.40
2023-04-21T21:52:39.250Z,15.40
2023-04-21T21:55:06.730Z,15.30
2023-04-21T21:57:33.993Z,15.30
2023-04-21T22:00:01.813Z,15.30
2023-04-21T22:02:28.884Z,15.30
2023-04-21T22:04:58.365Z,15.30
2023-04-21T22:07:25.189Z,15.30
2023-04-21T22:09:52.446Z,15.30
2023-04-21T22:12:19.421Z,15.30
2023-04-21T22:14:47.089Z,15.30
2023-04-21T22:17:14.479Z,15.30
2023-04-21T22:19:41.811Z,15.20
2023-04-21T22:22:08.564Z,15.20
2023-04-21T22:24:35.365Z,15.20
2023-04-21T22:27:02.396Z,15.30
2023-04-21T22:29:29.062Z,15.30
2023-04-21T22:31:55.863Z,15.30
2023-04-21T22:34:23.767Z,15.20
2023-04-21T22:36:52.034Z,15.20
2023-04-21T22:39:19.247Z,15.30
2023-04-21T22:41:46.133Z,15.20
2023-04-21T22:44:14.335Z,15.20
2023-04-21T22:46:41.154Z,15.20
2023-04-21T22:49:09.155Z,15.10
2023-04-21T22:51:36.277Z,15.00
2023-04-21T22:54:03.364Z,15.10
2023-04-21T22:56:31.393Z,15.00
2023-04-21T22:58:58.155Z,15.00
2023-04-21T23:01:25.183Z,15.00
2023-04-21T23:03:52.307Z,15.00
2023-04-21T23:06:19.141Z,14.90
2023-04-21T23:08:45.874Z,14.90
2023-04-21T23:11:13.536Z,14.70
2023-04-21T23:13:40.303Z,14.80
2023-04-21T23:16:07.089Z,14.80
2023-04-21T23:18:33.823Z,14.80
2023-04-21T23:21:00.951Z,14.70
2023-04-21T23:23:27.697Z,14.60
2023-04-21T23:25:54.495Z,14.60
2023-04-21T23:28:21.543Z,14.50
2023-04-21T23:30:48.273Z,14.50
2023-04-21T23:33:15.349Z,14.50
2023-04-21T23:35:42.481Z,14.40
2023-04-21T23:38:09.333Z,14.40
2023-04-21T23:40:36.117Z,14.40
2023-04-21T23:43:03.290Z,14.40
2023-04-21T23:45:30.403Z,14.30
2023-04-21T23:47:57.100Z,14.30
2023-04-21T23:50:23.954Z,14.30
2023-04-21T23:52:50.747Z,14.20
2023-04-21T23:55:18.176Z,14.30
2023-04-21T23:57:46.700Z,14.30
